Time;durP1;ratioP1;P1;durP2;ratioP2;P2;SDS_P1;SDS_P2;PMS_P1;PMS_P2;Temp;Humidity;BMP_temperature;BMP_pressure;BME280_temperature;BME280_humidity;BME280_pressure;Samples;Min_cycle;Max_cycle;Signal;HPM_P1;HPM_P2
2022/03/09 00:00:15;;;;;;;3.25;1.72;;;;;;;-1.76;48.20;99587.98;1768307;80;20970;-63
2022/03/09 00:02:42;;;;;;;2.15;1.70;;;;;;;-1.75;48.16;99590.13;1771575;80;21266;-64
2022/03/09 00:05:09;;;;;;;3.22;2.10;;;;;;;-1.74;48.07;99587.42;1751586;80;21042;-64
2022/03/09 00:07:37;;;;;;;2.08;1.50;;;;;;;-1.73;47.97;99589.57;1739009;82;21012;-63
2022/03/09 00:10:05;;;;;;;3.43;1.70;;;;;;;-1.73;47.88;99594.33;1755280;81;20971;-63
2022/03/09 00:12:33;;;;;;;2.52;1.82;;;;;;;-1.73;47.79;99593.02;1755854;80;20982;-64
2022/03/09 00:15:01;;;;;;;2.47;1.70;;;;;;;-1.77;47.79;99598.03;1742227;80;21229;-64
2022/03/09 00:17:28;;;;;;;2.30;1.72;;;;;;;-1.80;47.79;99595.63;1759127;80;21131;-64
2022/03/09 00:19:55;;;;;;;2.05;1.50;;;;;;;-1.80;47.83;99582.59;1771592;80;21493;-62
2022/03/09 00:22:24;;;;;;;2.85;1.67;;;;;;;-1.80;47.77;99585.20;1769908;80;21541;-63
2022/03/09 00:24:53;;;;;;;2.17;1.67;;;;;;;-1.82;47.81;99579.67;1738521;81;21046;-63
2022/03/09 00:27:19;;;;;;;2.98;1.82;;;;;;;-1.87;47.98;99586.01;1767448;81;21307;-63
2022/03/09 00:29:47;;;;;;;2.47;1.50;;;;;;;-1.91;48.19;99579.77;1760423;81;21455;-64
2022/03/09 00:32:14;;;;;;;2.52;1.87;;;;;;;-1.96;48.39;99585.26;1766019;80;21501;-62
2022/03/09 00:34:41;;;;;;;2.65;1.95;;;;;;;-2.04;48.74;99588.77;1743527;80;21560;-62
2022/03/09 00:37:08;;;;;;;2.42;1.65;;;;;;;-2.07;48.79;99588.09;1751176;80;21055;-63
2022/03/09 00:39:36;;;;;;;2.62;1.45;;;;;;;-2.09;48.82;99586.90;1739987;81;20892;-62
2022/03/09 00:42:04;;;;;;;2.22;1.60;;;;;;;-2.12;48.83;99582.31;1761783;81;20967;-63
2022/03/09 00:44:32;;;;;;;2.42;1.45;;;;;;;-2.13;48.91;99576.72;1739224;81;21011;-61
2022/03/09 00:46:58;;;;;;;6.17;1.85;;;;;;;-2.13;48.87;99577.56;1744139;81;20900;-62
2022/03/09 00:49:26;;;;;;;2.47;1.67;;;;;;;-2.18;49.05;99574.84;1760161;81;20876;-62
2022/03/09 00:51:54;;;;;;;2.17;1.55;;;;;;;-2.23;49.08;99570.36;1743486;81;21794;-62
2022/03/09 00:54:21;;;;;;;1.72;1.25;;;;;;;-2.26;49.08;99575.28;1739831;81;21565;-62
2022/03/09 00:56:49;;;;;;;2.10;1.40;;;;;;;-2.24;49.09;99569.51;1746753;80;21054;-64
2022/03/09 00:59:17;;;;;;;1.98;1.30;;;;;;;-2.23;49.07;99571.66;1766390;80;20940;-63
2022/03/09 01:01:44;;;;;;;3.02;1.92;;;;;;;-2.22;49.01;99574.66;1742939;81;20896;-63
2022/03/09 01:04:11;;;;;;;3.30;1.70;;;;;;;-2.18;48.91;99580.05;1735509;81;21258;-63
2022/03/09 01:06:38;;;;;;;3.00;1.57;;;;;;;-2.14;48.86;99578.97;1735001;82;21566;-64
2022/03/09 01:09:05;;;;;;;3.25;1.95;;;;;;;-2.14;48.75;99569.84;1735002;82;20929;-63
2022/03/09 01:11:32;;;;;;;4.00;1.98;;;;;;;-2.14;48.78;99575.05;1737469;81;21532;-63
2022/03/09 01:14:00;;;;;;;3.80;2.20;;;;;;;-2.15;48.79;99574.20;1733958;81;21383;-63
2022/03/09 01:16:27;;;;;;;3.27;1.72;;;;;;;-2.12;48.86;99570.59;1735255;82;21888;-63
2022/03/09 01:18:56;;;;;;;3.92;2.27;;;;;;;-2.15;48.85;99567.69;1740374;81;21477;-65
2022/03/09 01:21:23;;;;;;;3.85;2.08;;;;;;;-2.14;48.95;99569.84;1747993;81;20945;-63
2022/03/09 01:23:50;;;;;;;3.35;1.95;;;;;;;-2.12;49.00;99567.98;1738948;81;21065;-65
2022/03/09 01:26:17;;;;;;;3.40;1.85;;;;;;;-2.10;48.92;99570.02;1735522;82;21004;-62
2022/03/09 01:28:44;;;;;;;4.70;2.30;;;;;;;-2.09;48.93;99573.02;1741167;81;22174;-63
2022/03/09 01:31:11;;;;;;;6.35;2.17;;;;;;;-2.10;48.97;99570.87;1736338;81;21018;-63
2022/03/09 01:33:39;;;;;;;2.80;1.80;;;;;;;-2.12;49.05;99575.34;1693907;84;21008;-63
2022/03/09 01:36:07;;;;;;;3.45;2.00;;;;;;;-2.09;49.05;99571.72;1703835;83;20964;-63
2022/03/09 01:38:35;;;;;;;2.72;1.62;;;;;;;-2.03;48.89;99569.58;1758377;81;21560;-64
2022/03/09 01:41:02;;;;;;;2.60;1.70;;;;;;;-1.96;48.78;99568.77;1751973;80;21941;-63
2022/03/09 01:43:30;;;;;;;3.22;2.15;;;;;;;-1.95;48.73;99573.87;1761029;80;20967;-63
2022/03/09 01:45:57;;;;;;;2.42;1.80;;;;;;;-1.91;48.66;99575.39;1743160;80;20880;-65
2022/03/09 01:48:25;;;;;;;2.83;1.82;;;;;;;-1.85;48.65;99567.65;1754339;81;21016;-63
2022/03/09 01:50:52;;;;;;;2.65;1.90;;;;;;;-1.81;48.60;99566.55;1758294;81;20959;-64
2022/03/09 01:53:19;;;;;;;1.85;1.55;;;;;;;-1.81;48.71;99568.31;1764385;80;21247;-65
2022/03/09 01:55:47;;;;;;;2.30;1.75;;;;;;;-1.76;48.67;99574.95;1743385;82;21051;-64
2022/03/09 01:58:30;;;;;;;3.45;1.92;;;;;;;-1.75;48.76;99579.70;1745310;80;21489;-65
2022/03/09 02:00:57;;;;;;;4.35;2.37;;;;;;;-1.75;48.72;99571.42;1744199;82;20917;-63
2022/03/09 02:03:24;;;;;;;3.12;2.15;;;;;;;-1.75;48.93;99570.11;1751159;80;21495;-63
2022/03/09 02:05:51;;;;;;;3.95;2.55;;;;;;;-1.75;49.14;99577.09;1763080;80;21934;-62
2022/03/09 02:11:08;;;;;;;3.42;2.02;;;;;;;-1.71;49.09;99578.58;1771257;80;20876;-63
2022/03/09 02:13:38;;;;;;;3.40;2.30;;;;;;;-1.72;49.08;99576.92;1768299;80;21129;-63
2022/03/09 02:16:07;;;;;;;3.50;2.50;;;;;;;-1.71;49.04;99585.94;1705612;84;20990;-62
2022/03/09 02:18:35;;;;;;;3.70;2.55;;;;;;;-1.68;48.96;99580.55;1771026;80;21592;-62
2022/03/09 02:21:03;;;;;;;3.45;2.70;;;;;;;-1.64;48.93;99583.33;1771266;80;21497;-64
2022/03/09 02:23:31;;;;;;;4.22;2.92;;;;;;;-1.66;48.96;99590.42;1769736;80;21509;-63
2022/03/09 02:25:58;;;;;;;4.92;2.80;;;;;;;-1.65;48.93;99590.80;1771421;80;20979;-64
2022/03/09 02:28:25;;;;;;;4.80;3.22;;;;;;;-1.65;48.98;99593.88;1758948;80;21502;-64
2022/03/09 02:30:57;;;;;;;6.53;3.72;;;;;;;-1.61;49.04;99600.11;1748778;81;21280;-63
2022/03/09 02:33:24;;;;;;;4.15;3.25;;;;;;;-1.62;49.34;99602.83;1766847;81;20939;-61
2022/03/09 02:35:54;;;;;;;5.42;3.58;;;;;;;-1.64;49.61;99601.59;1740981;81;21378;-63
2022/03/09 02:38:22;;;;;;;4.53;2.50;;;;;;;-1.66;49.98;99606.07;1738209;81;20988;-63
2022/03/09 02:40:49;;;;;;;4.85;3.12;;;;;;;-1.68;50.27;99608.40;1735461;82;21044;-62
2022/03/09 02:43:16;;;;;;;3.55;3.00;;;;;;;-1.68;50.43;99607.94;1731543;82;21254;-62
2022/03/09 02:45:44;;;;;;;4.47;3.33;;;;;;;-1.68;50.38;99606.63;1735398;82;20930;-63
2022/03/09 02:48:11;;;;;;;3.83;3.02;;;;;;;-1.67;50.25;99616.15;1735653;82;21005;-63
2022/03/09 02:50:38;;;;;;;4.00;3.17;;;;;;;-1.69;50.00;99611.92;1715118;82;21057;-64
2022/03/09 02:53:05;;;;;;;3.83;2.47;;;;;;;-1.66;49.63;99612.59;1736934;82;21491;-62
2022/03/09 02:55:32;;;;;;;2.02;1.82;;;;;;;-1.65;49.30;99609.52;1714094;82;21604;-62
2022/03/09 02:57:59;;;;;;;4.25;2.25;;;;;;;-1.63;49.14;99615.48;1735362;82;20882;-63
2022/03/09 03:00:26;;;;;;;2.98;2.17;;;;;;;-1.59;49.07;99608.68;1733806;82;21507;-64
2022/03/09 03:02:54;;;;;;;3.20;2.20;;;;;;;-1.54;48.83;99605.33;1735707;81;21046;-63
2022/03/09 03:05:22;;;;;;;2.58;2.00;;;;;;;-1.51;48.66;99600.42;1735104;82;21918;-62
2022/03/09 03:07:49;;;;;;;3.30;1.95;;;;;;;-1.48;48.61;99603.67;1719092;82;21272;-64
2022/03/09 03:10:16;;;;;;;2.67;1.62;;;;;;;-1.45;48.60;99604.80;1726496;82;20974;-64
2022/03/09 03:12:43;;;;;;;2.62;2.10;;;;;;;-1.44;48.61;99601.73;1736465;82;20993;-63
2022/03/09 03:15:10;;;;;;;2.83;1.80;;;;;;;-1.41;48.53;99601.55;1732883;82;20997;-64
2022/03/09 03:17:38;;;;;;;2.52;1.98;;;;;;;-1.40;48.42;99602.75;1734966;82;21524;-64
2022/03/09 03:20:06;;;;;;;2.33;1.80;;;;;;;-1.40;48.38;99606.66;1736737;82;21472;-63
2022/03/09 03:22:35;;;;;;;2.17;1.42;;;;;;;-1.43;48.36;99610.75;1734255;82;21011;-63
2022/03/09 03:25:03;;;;;;;2.87;1.95;;;;;;;-1.43;48.45;99611.21;1734357;82;20941;-63
2022/03/09 03:27:30;;;;;;;2.80;1.65;;;;;;;-1.43;48.55;99613.36;1733656;81;20904;-63
2022/03/09 03:29:57;;;;;;;3.25;1.90;;;;;;;-1.49;48.67;99616.82;1734551;82;20918;-64
2022/03/09 03:32:24;;;;;;;4.37;2.12;;;;;;;-1.50;48.72;99610.76;1730950;82;21596;-63
2022/03/09 03:34:51;;;;;;;3.70;2.15;;;;;;;-1.48;48.69;99610.19;1716703;82;20989;-63
2022/03/09 03:37:20;;;;;;;4.03;2.02;;;;;;;-1.47;48.63;99615.80;1731605;80;20897;-63
2022/03/09 03:39:47;;;;;;;3.70;2.12;;;;;;;-1.48;48.58;99612.80;1751944;80;20984;-63
2022/03/09 03:42:14;;;;;;;3.72;2.50;;;;;;;-1.48;48.65;99619.33;1749479;80;21011;-64
2022/03/09 03:44:42;;;;;;;4.05;2.12;;;;;;;-1.51;48.69;99616.89;1745071;80;21256;-64
2022/03/09 03:47:09;;;;;;;3.25;2.22;;;;;;;-1.54;48.75;99616.26;1755629;80;20919;-63
2022/03/09 03:49:36;;;;;;;4.25;2.27;;;;;;;-1.56;48.86;99618.94;1768415;80;20943;-62
2022/03/09 03:52:05;;;;;;;4.08;2.60;;;;;;;-1.60;48.97;99614.00;1751609;80;21135;-63
2022/03/09 03:54:32;;;;;;;3.25;2.35;;;;;;;-1.67;49.07;99608.33;1769629;80;20944;-63
2022/03/09 03:56:58;;;;;;;3.60;2.87;;;;;;;-1.71;49.19;99608.11;1751279;80;21234;-64
2022/03/09 03:59:25;;;;;;;3.45;2.67;;;;;;;-1.74;49.25;99610.90;1741224;82;20976;-62
2022/03/09 04:01:53;;;;;;;3.70;2.75;;;;;;;-1.79;49.36;99605.57;1763485;80;21478;-63
2022/03/09 04:04:19;;;;;;;3.77;3.00;;;;;;;-1.83;49.43;99606.23;1759074;80;21041;-63
2022/03/09 04:06:46;;;;;;;3.72;2.42;;;;;;;-1.87;49.49;99602.11;1771233;80;20923;-62
2022/03/09 04:09:13;;;;;;;3.92;2.90;;;;;;;-1.92;49.54;99601.55;1769892;80;21248;-63
2022/03/09 04:11:41;;;;;;;3.33;2.33;;;;;;;-1.96;49.55;99606.12;1755158;80;20944;-63
2022/03/09 04:14:08;;;;;;;6.80;2.85;;;;;;;-1.98;49.54;99605.34;1749013;80;20945;-63
2022/03/09 04:16:36;;;;;;;3.25;2.77;;;;;;;-2.03;49.66;99606.53;1759743;80;20987;-62
2022/03/09 04:19:05;;;;;;;3.90;2.62;;;;;;;-2.09;49.84;99601.69;1760870;80;20945;-63
2022/03/09 04:21:33;;;;;;;2.80;2.00;;;;;;;-2.14;49.85;99596.72;1758715;80;21282;-65
2022/03/09 04:24:00;;;;;;;2.33;2.12;;;;;;;-2.15;49.91;99604.64;1753974;80;20907;-64
2022/03/09 04:26:27;;;;;;;3.22;2.22;;;;;;;-2.18;49.97;99612.63;1743267;80;20932;-62
2022/03/09 04:28:54;;;;;;;2.37;2.12;;;;;;;-2.20;50.07;99617.95;1745685;80;20996;-64
2022/03/09 04:31:21;;;;;;;5.90;2.85;;;;;;;-2.23;50.25;99621.17;1767527;80;21065;-63
2022/03/09 04:33:49;;;;;;;3.70;2.65;;;;;;;-2.24;50.37;99622.94;1748331;80;21371;-63
2022/03/09 04:36:16;;;;;;;3.20;2.37;;;;;;;-2.27;50.48;99618.38;1764745;80;20974;-63
2022/03/09 04:38:43;;;;;;;4.80;2.65;;;;;;;-2.29;50.56;99625.42;1771128;80;21000;-63
2022/03/09 04:41:10;;;;;;;4.33;2.27;;;;;;;-2.30;50.60;99622.46;1770829;80;20967;-64
2022/03/09 04:43:39;;;;;;;5.37;2.85;;;;;;;-2.30;50.67;99628.98;1753452;80;21474;-63
2022/03/09 04:46:06;;;;;;;2.60;2.10;;;;;;;-2.32;50.69;99629.53;1771301;80;21877;-63
2022/03/09 04:48:33;;;;;;;4.37;2.30;;;;;;;-2.34;50.73;99633.96;1742616;81;21011;-64
2022/03/09 04:51:02;;;;;;;4.10;2.80;;;;;;;-2.32;50.82;99633.44;1759538;81;20924;-63
2022/03/09 04:53:29;;;;;;;4.15;2.50;;;;;;;-2.23;51.03;99636.81;1738801;80;21018;-62
2022/03/09 04:55:57;;;;;;;4.05;2.30;;;;;;;-2.05;51.22;99644.89;1740166;82;21475;-63
2022/03/09 04:58:25;;;;;;;4.65;2.85;;;;;;;-1.81;51.19;99638.28;1768318;80;21270;-64
2022/03/09 05:00:55;;;;;;;5.72;3.22;;;;;;;-1.48;51.05;99634.98;1771267;80;20991;-62
2022/03/09 05:03:24;;;;;;;9.85;5.80;;;;;;;-1.11;50.73;99639.30;1743785;80;20980;-62
2022/03/09 05:05:51;;;;;;;15.45;6.08;;;;;;;-0.70;50.35;99642.80;1742462;81;21004;-65
2022/03/09 05:08:19;;;;;;;4.97;4.20;;;;;;;-0.27;49.94;99641.78;1743993;80;20939;-62
2022/03/09 05:10:45;;;;;;;6.12;3.70;;;;;;;0.18;49.46;99644.49;1734873;82;21225;-64
2022/03/09 05:13:14;;;;;;;5.33;3.22;;;;;;;0.63;49.00;99641.86;1735226;82;21520;-63
2022/03/09 05:15:41;;;;;;;10.00;3.90;;;;;;;1.08;48.28;99637.41;1745525;80;20973;-66
2022/03/09 05:18:08;;;;;;;8.23;4.92;;;;;;;1.54;47.59;99639.42;1765688;80;21461;-63
2022/03/09 05:20:35;;;;;;;9.33;6.90;;;;;;;1.99;46.97;99640.47;1760265;80;21053;-64
2022/03/09 05:23:04;;;;;;;10.30;7.53;;;;;;;2.49;46.16;99643.66;1752992;80;21229;-64
2022/03/09 05:25:32;;;;;;;6.67;5.47;;;;;;;2.97;45.25;99644.31;1758074;80;21512;-64
2022/03/09 05:28:00;;;;;;;6.45;3.40;;;;;;;3.46;44.04;99642.65;1762304;80;20953;-63
2022/03/09 05:30:28;;;;;;;4.92;3.95;;;;;;;3.95;42.79;99644.81;1758736;80;21049;-63
2022/03/09 05:32:55;;;;;;;3.90;3.50;;;;;;;4.43;41.45;99636.00;1770949;80;20995;-63
2022/03/09 05:35:24;;;;;;;5.53;3.52;;;;;;;4.80;40.45;99633.72;1703714;84;21276;-63
2022/03/09 05:37:51;;;;;;;7.60;3.27;;;;;;;5.06;39.39;99638.92;1749016;80;21557;-64
2022/03/09 05:40:18;;;;;;;5.47;2.37;;;;;;;5.20;38.73;99645.66;1742613;80;21498;-66
2022/03/09 05:42:45;;;;;;;3.67;2.45;;;;;;;5.35;38.31;99640.36;1767132;80;21046;-65
2022/03/09 05:45:12;;;;;;;4.20;2.72;;;;;;;5.50;37.76;99639.05;1757078;80;20982;-64
2022/03/09 05:47:40;;;;;;;3.85;2.65;;;;;;;5.68;37.38;99641.39;1744020;80;21345;-64
2022/03/09 05:50:09;;;;;;;4.15;2.72;;;;;;;5.97;36.88;99640.97;1751500;80;20977;-61
2022/03/09 05:52:36;;;;;;;3.50;2.90;;;;;;;6.27;36.35;99643.98;1770943;80;20997;-63
2022/03/09 05:55:05;;;;;;;5.85;3.30;;;;;;;6.57;35.83;99639.85;1750822;80;20999;-63
2022/03/09 05:57:34;;;;;;;3.77;3.10;;;;;;;6.87;35.50;99642.81;1752207;80;20983;-64
2022/03/09 06:00:03;;;;;;;3.67;3.08;;;;;;;7.17;34.91;99649.18;1768208;80;21265;-65
2022/03/09 06:02:32;;;;;;;3.67;3.05;;;;;;;7.26;34.26;99656.75;1753680;80;20966;-64
2022/03/09 06:04:59;;;;;;;3.20;2.67;;;;;;;7.10;34.01;99657.84;1749323;80;21574;-65
2022/03/09 06:07:26;;;;;;;6.28;5.33;;;;;;;6.79;33.77;99651.94;1764893;80;20896;-63
2022/03/09 06:09:53;;;;;;;5.25;3.50;;;;;;;6.46;34.04;99658.53;1743840;82;21534;-64
2022/03/09 06:12:21;;;;;;;5.42;3.70;;;;;;;6.19;34.20;99653.93;1746330;80;22077;-64
2022/03/09 06:14:48;;;;;;;6.17;5.53;;;;;;;5.92;34.46;99658.19;1754473;80;20999;-66
2022/03/09 06:17:15;;;;;;;8.83;7.92;;;;;;;5.54;34.78;99656.27;1755669;80;21039;-65
2022/03/09 06:19:43;;;;;;;10.20;6.00;;;;;;;5.25;35.17;99662.75;1764010;80;21043;-64
2022/03/09 06:22:10;;;;;;;5.90;4.62;;;;;;;5.05;35.46;99661.00;1765046;80;20995;-64
2022/03/09 06:24:37;;;;;;;4.97;3.47;;;;;;;4.85;35.78;99658.72;1757785;80;21262;-65
2022/03/09 06:27:04;;;;;;;6.60;3.20;;;;;;;4.66;35.94;99665.69;1754083;80;21058;-64
2022/03/09 06:29:32;;;;;;;3.55;3.00;;;;;;;4.53;36.32;99659.77;1758519;80;20962;-65
2022/03/09 06:32:00;;;;;;;5.90;3.15;;;;;;;4.45;36.39;99670.95;1751300;80;21027;-64
2022/03/09 06:34:39;;;;;;;4.33;3.10;;;;;;;4.39;36.69;99663.55;1760066;80;21061;-64
2022/03/09 06:37:07;;;;;;;3.83;3.00;;;;;;;4.45;36.66;99668.31;1753457;80;21293;-65
2022/03/09 06:39:36;;;;;;;7.55;2.77;;;;;;;4.59;36.80;99668.49;1763803;80;20990;-65
2022/03/09 06:42:04;;;;;;;9.20;2.67;;;;;;;4.78;36.89;99666.81;1771406;80;21017;-66
2022/03/09 06:44:31;;;;;;;2.85;2.12;;;;;;;5.09;36.82;99665.51;1744181;80;21004;-64
2022/03/09 06:46:58;;;;;;;4.85;2.40;;;;;;;5.40;36.29;99672.45;1759836;80;20879;-65
2022/03/09 06:49:26;;;;;;;2.90;2.20;;;;;;;5.56;35.83;99668.84;1755294;80;21302;-64
2022/03/09 06:51:53;;;;;;;2.65;2.30;;;;;;;5.73;35.44;99664.73;1745439;80;20948;-64
2022/03/09 06:54:30;;;;;;;2.95;1.90;;;;;;;5.83;35.07;99666.43;1756283;80;21563;-66
2022/03/09 06:56:59;;;;;;;5.83;2.47;;;;;;;5.86;34.89;99660.91;1752741;80;20982;-65
2022/03/09 06:59:26;;;;;;;3.00;2.40;;;;;;;5.99;34.74;99661.97;1743828;82;20932;-64
2022/03/09 07:01:53;;;;;;;3.50;2.22;;;;;;;6.10;34.52;99669.78;1741456;80;21266;-64
2022/03/09 07:04:21;;;;;;;2.83;1.98;;;;;;;6.17;34.14;99673.05;1752809;80;20975;-65
2022/03/09 07:06:52;;;;;;;3.90;2.50;;;;;;;6.17;34.10;99665.61;1755148;80;21406;-63
2022/03/09 07:09:19;;;;;;;2.10;1.82;;;;;;;6.14;33.85;99675.13;1757024;80;20994;-63
2022/03/09 07:11:48;;;;;;;2.25;1.72;;;;;;;6.04;33.98;99671.64;1751427;80;20983;-67
2022/03/09 07:14:15;;;;;;;2.75;2.12;;;;;;;6.01;33.95;99679.35;1744453;80;21223;-65
2022/03/09 07:16:43;;;;;;;5.35;3.00;;;;;;;5.99;34.08;99683.94;1749201;80;21041;-66
2022/03/09 07:19:10;;;;;;;4.35;3.95;;;;;;;6.10;33.91;99679.03;1755083;80;20952;-67
2022/03/09 07:21:37;;;;;;;7.97;5.00;;;;;;;6.19;33.94;99680.83;1739067;80;21000;-65
2022/03/09 07:24:05;;;;;;;7.58;4.50;;;;;;;6.42;33.90;99674.30;1749379;80;20951;-64
2022/03/09 07:26:33;;;;;;;5.83;4.75;;;;;;;6.69;33.51;99673.59;1744246;81;21272;-63
2022/03/09 07:29:03;;;;;;;5.83;4.35;;;;;;;6.91;33.24;99674.59;1750872;81;20978;-65
2022/03/09 07:31:30;;;;;;;10.23;3.87;;;;;;;7.02;33.04;99678.88;1751698;81;20988;-63
2022/03/09 07:33:57;;;;;;;4.95;2.98;;;;;;;7.33;32.90;99675.88;1754214;81;21400;-65
2022/03/09 07:36:24;;;;;;;3.70;2.62;;;;;;;7.58;32.66;99670.41;1760271;80;20995;-66
2022/03/09 07:38:53;;;;;;;5.17;3.00;;;;;;;7.89;32.03;99670.94;1754589;80;21549;-64
2022/03/09 07:41:20;;;;;;;3.58;2.35;;;;;;;8.02;31.73;99666.12;1721277;82;20947;-64
2022/03/09 07:43:47;;;;;;;6.25;2.20;;;;;;;8.22;31.39;99666.32;1724185;82;20950;-66
2022/03/09 07:46:14;;;;;;;4.40;2.20;;;;;;;8.43;31.35;99666.05;1721084;82;22471;-65
2022/03/09 07:48:42;;;;;;;4.30;2.22;;;;;;;8.65;30.92;99662.45;1723295;82;21034;-65
2022/03/09 07:51:10;;;;;;;8.13;1.75;;;;;;;8.84;30.56;99655.30;1722961;82;21322;-63
2022/03/09 07:53:42;;;;;;;6.55;1.87;;;;;;;8.97;30.29;99651.74;1728644;82;21549;-67
2022/03/09 07:56:06;;;;;;;1.95;1.57;;;;;;;9.06;30.09;99654.28;1706679;82;21063;-66
2022/03/09 07:58:33;;;;;;;4.42;1.45;;;;;;;9.01;29.17;99657.90;1729912;82;20992;-65
2022/03/09 08:01:00;;;;;;;4.53;1.50;;;;;;;8.82;29.09;99654.11;1725313;82;20884;-64
2022/03/09 08:03:27;;;;;;;4.58;2.60;;;;;;;8.78;29.07;99658.56;1729833;82;21251;-64
2022/03/09 08:05:54;;;;;;;2.37;1.35;;;;;;;8.73;28.92;99654.21;1730839;82;20976;-67
2022/03/09 08:08:21;;;;;;;1.72;1.45;;;;;;;8.56;28.90;99655.89;1731501;82;21529;-65
2022/03/09 08:10:49;;;;;;;2.08;1.40;;;;;;;8.28;28.40;99659.13;1724504;82;20980;-66
2022/03/09 08:13:16;;;;;;;1.90;1.50;;;;;;;8.02;28.63;99659.49;1725378;82;21071;-65
2022/03/09 08:15:43;;;;;;;2.27;1.90;;;;;;;7.76;28.71;99664.67;1716372;82;21268;-65
2022/03/09 08:18:11;;;;;;;1.45;1.35;;;;;;;7.48;28.85;99670.11;1730732;82;21454;-64
2022/03/09 08:20:38;;;;;;;1.98;1.67;;;;;;;7.30;29.12;99667.41;1726437;82;21470;-63
2022/03/09 08:23:06;;;;;;;1.90;1.65;;;;;;;7.15;30.13;99659.08;1723738;82;21015;-65
2022/03/09 08:25:36;;;;;;;1.85;1.45;;;;;;;6.96;29.90;99660.45;1727455;82;21505;-63
2022/03/09 08:28:05;;;;;;;3.90;1.80;;;;;;;6.90;29.73;99665.00;1720193;82;21294;-63
2022/03/09 08:30:33;;;;;;;2.22;1.50;;;;;;;6.80;29.54;99665.52;1729368;82;21143;-66
2022/03/09 08:33:00;;;;;;;2.05;1.72;;;;;;;6.77;30.23;99669.77;1732650;82;20999;-65
2022/03/09 08:35:27;;;;;;;1.67;1.30;;;;;;;6.74;29.87;99672.68;1718095;82;21015;-67
2022/03/09 08:37:54;;;;;;;1.65;1.27;;;;;;;6.73;29.66;99661.75;1721311;82;21026;-65
2022/03/09 08:40:22;;;;;;;2.10;1.30;;;;;;;6.66;29.52;99666.78;1736729;81;21225;-67
2022/03/09 08:42:49;;;;;;;1.22;1.07;;;;;;;6.54;29.83;99667.91;1730519;81;20856;-64
2022/03/09 08:45:16;;;;;;;2.20;1.30;;;;;;;6.59;29.89;99668.81;1748511;80;20936;-64
2022/03/09 08:47:44;;;;;;;2.42;1.70;;;;;;;6.62;29.82;99669.34;1748710;80;21070;-63
2022/03/09 08:50:11;;;;;;;3.62;1.70;;;;;;;6.64;29.99;99673.19;1756312;80;21514;-61
2022/03/09 08:52:39;;;;;;;1.72;1.27;;;;;;;6.69;29.92;99669.15;1729868;81;21267;-61
2022/03/09 08:55:08;;;;;;;2.58;1.92;;;;;;;6.72;30.21;99676.80;1745771;80;20983;-60
2022/03/09 08:57:35;;;;;;;1.37;1.27;;;;;;;6.83;30.58;99675.78;1758753;80;21020;-61
2022/03/09 09:00:04;;;;;;;1.75;1.27;;;;;;;7.08;30.58;99675.67;1756997;80;21020;-61
2022/03/09 09:02:32;;;;;;;2.42;1.80;;;;;;;7.14;29.99;99666.70;1750356;80;22046;-61
2022/03/09 09:04:59;;;;;;;4.72;1.55;;;;;;;7.10;29.88;99673.72;1760274;80;21255;-62
2022/03/09 09:07:26;;;;;;;2.17;1.60;;;;;;;7.17;30.36;99665.57;1753586;80;20943;-61
2022/03/09 09:09:53;;;;;;;1.60;1.40;;;;;;;7.28;30.24;99668.02;1771250;80;21025;-61
2022/03/09 09:12:22;;;;;;;7.90;1.70;;;;;;;7.31;30.08;99669.89;1764464;80;20999;-64
2022/03/09 09:14:50;;;;;;;7.72;1.62;;;;;;;7.27;29.99;99667.17;1755738;80;20877;-62
2022/03/09 09:17:18;;;;;;;3.17;1.40;;;;;;;7.39;30.26;99673.14;1743979;81;21770;-61
2022/03/09 09:19:45;;;;;;;1.90;1.60;;;;;;;7.42;29.91;99664.91;1747808;80;21441;-63
2022/03/09 09:22:14;;;;;;;3.15;1.47;;;;;;;7.40;29.78;99670.33;1759391;80;21153;-64
2022/03/09 09:24:41;;;;;;;2.20;1.50;;;;;;;7.44;30.01;99673.05;1758821;80;20891;-61
2022/03/09 09:27:08;;;;;;;4.80;1.47;;;;;;;7.48;29.46;99664.82;1757692;80;21497;-61
2022/03/09 09:29:37;;;;;;;1.00;0.90;;;;;;;7.44;29.23;99666.43;1759463;80;21239;-61
2022/03/09 09:32:05;;;;;;;3.70;1.50;;;;;;;7.38;28.93;99668.81;1756517;80;21057;-62
2022/03/09 09:34:32;;;;;;;2.77;1.22;;;;;;;7.38;28.88;99667.00;1760359;80;21007;-61
2022/03/09 09:37:02;;;;;;;3.90;1.20;;;;;;;7.39;28.81;99670.00;1748037;80;20947;-62
2022/03/09 09:39:28;;;;;;;4.95;1.67;;;;;;;7.41;28.66;99666.72;1756281;80;21576;-61
2022/03/09 09:41:56;;;;;;;2.62;1.10;;;;;;;7.51;28.52;99665.34;1761622;81;21320;-61
2022/03/09 09:44:24;;;;;;;2.02;1.22;;;;;;;7.66;28.57;99655.12;1743356;81;21165;-62
2022/03/09 09:46:52;;;;;;;2.30;1.35;;;;;;;7.91;28.40;99648.62;1754395;80;20960;-63
2022/03/09 09:49:25;;;;;;;1.20;1.10;;;;;;;7.93;28.22;99653.75;1749839;80;21137;-63
2022/03/09 09:51:54;;;;;;;1.25;1.10;;;;;;;8.38;27.68;99653.74;1763489;80;21097;-62
2022/03/09 09:54:23;;;;;;;2.10;1.30;;;;;;;8.81;26.98;99644.50;1768719;80;21194;-63
2022/03/09 09:56:50;;;;;;;2.33;1.07;;;;;;;8.99;27.12;99643.96;1741459;80;20897;-61
2022/03/09 09:59:17;;;;;;;1.27;1.10;;;;;;;9.09;27.18;99648.66;1766653;80;21453;-61
2022/03/09 10:01:44;;;;;;;2.15;1.90;;;;;;;9.28;26.85;99644.96;1746872;80;21512;-61
2022/03/09 10:04:11;;;;;;;1.85;1.35;;;;;;;9.29;26.77;99650.10;1763181;80;21046;-62
2022/03/09 10:06:38;;;;;;;1.57;1.40;;;;;;;9.29;26.28;99649.27;1762221;80;22066;-62
2022/03/09 10:09:11;;;;;;;0.82;0.82;;;;;;;9.13;26.39;99654.47;1760762;80;20923;-64
2022/03/09 10:11:52;;;;;;;3.75;1.22;;;;;;;9.11;26.59;99652.48;1757992;80;20982;-64
2022/03/09 10:14:50;;;;;;;1.32;1.20;;;;;;;9.11;26.67;99648.50;1760131;80;20903;-64
2022/03/09 10:17:25;;;;;;;2.72;0.82;;;;;;;9.10;26.52;99645.48;1758221;80;21082;-64
2022/03/09 10:19:55;;;;;;;2.30;1.00;;;;;;;9.15;26.35;99637.40;1771472;80;21260;-63
2022/03/09 10:22:33;;;;;;;1.32;1.10;;;;;;;9.14;26.23;99641.55;1757692;80;20836;-64
2022/03/09 10:25:11;;;;;;;3.30;1.87;;;;;;;9.08;26.23;99643.00;1757289;80;20983;-64
2022/03/09 10:27:53;;;;;;;3.17;1.37;;;;;;;9.06;26.58;99638.36;1756452;80;20943;-64
2022/03/09 10:30:30;;;;;;;1.57;1.30;;;;;;;9.03;26.31;99644.46;1747464;80;20884;-64
2022/03/09 10:32:59;;;;;;;3.22;1.47;;;;;;;9.01;26.56;99645.12;1745095;80;21166;-62
2022/03/09 10:35:42;;;;;;;2.08;1.35;;;;;;;9.06;26.38;99634.86;1748213;80;20982;-64
2022/03/09 10:38:19;;;;;;;1.20;1.10;;;;;;;9.10;26.58;99642.34;1753889;81;21418;-63
2022/03/09 10:40:51;;;;;;;1.90;1.65;;;;;;;9.11;26.38;99633.90;1744006;80;20904;-67
2022/03/09 10:43:21;;;;;;;2.80;1.75;;;;;;;9.04;26.30;99631.55;1750063;80;20933;-65
2022/03/09 10:46:11;;;;;;;2.20;1.40;;;;;;;9.03;26.58;99632.03;1766378;80;21240;-64
2022/03/09 10:48:52;;;;;;;1.70;1.50;;;;;;;9.04;26.57;99630.22;1762896;80;20979;-65
2022/03/09 10:51:44;;;;;;;2.08;1.60;;;;;;;9.03;26.45;99627.22;1758789;80;21469;-63
2022/03/09 10:54:16;;;;;;;2.80;1.45;;;;;;;9.08;26.51;99627.57;1770834;80;21060;-66
2022/03/09 10:56:44;;;;;;;2.20;1.80;;;;;;;9.19;26.61;99624.66;1760506;80;20993;-65
2022/03/09 10:59:15;;;;;;;3.35;1.47;;;;;;;9.16;26.48;99623.15;1770230;80;21251;-65
2022/03/09 11:01:43;;;;;;;2.05;1.80;;;;;;;9.05;26.64;99618.10;1765968;80;20887;-64
2022/03/09 11:04:19;;;;;;;1.87;1.47;;;;;;;9.09;26.52;99615.48;1760399;80;20856;-65
2022/03/09 11:06:49;;;;;;;3.75;1.92;;;;;;;9.16;26.52;99614.34;1770546;80;21493;-65
2022/03/09 11:09:17;;;;;;;4.50;2.15;;;;;;;9.29;26.56;99604.13;1759307;80;20939;-65
2022/03/09 11:11:46;;;;;;;4.35;1.80;;;;;;;9.44;26.59;99597.73;1761851;80;21885;-66
2022/03/09 11:14:14;;;;;;;5.53;1.70;;;;;;;9.54;26.65;99599.77;1768323;80;21002;-66
2022/03/09 11:16:43;;;;;;;2.95;1.70;;;;;;;9.62;26.78;99597.95;1764801;80;21574;-65
2022/03/09 11:19:12;;;;;;;5.08;1.90;;;;;;;9.66;26.64;99599.30;1770860;80;20927;-66
2022/03/09 11:21:40;;;;;;;2.85;1.57;;;;;;;9.69;26.60;99596.33;1771128;80;20967;-66
2022/03/09 11:24:09;;;;;;;1.72;1.45;;;;;;;9.76;26.31;99595.17;1753297;80;21221;-63
2022/03/09 11:26:56;;;;;;;2.58;1.55;;;;;;;9.74;26.02;99590.52;1757306;80;20974;-63
2022/03/09 11:29:38;;;;;;;2.02;1.72;;;;;;;9.70;25.98;99596.64;1762325;80;21564;-61
2022/03/09 11:32:10;;;;;;;3.80;2.08;;;;;;;9.69;26.14;99601.64;1758377;80;21598;-64
2022/03/09 11:34:44;;;;;;;4.28;1.87;;;;;;;9.77;26.33;99596.84;1762169;80;21556;-65
2022/03/09 11:37:18;;;;;;;6.67;2.05;;;;;;;9.84;26.12;99594.70;1765522;80;21179;-66
2022/03/09 11:40:09;;;;;;;2.45;1.80;;;;;;;9.87;26.24;99589.06;1759850;80;21027;-65
2022/03/09 11:42:41;;;;;;;2.67;1.60;;;;;;;9.92;26.19;99596.05;1718895;82;21596;-66
2022/03/09 11:45:21;;;;;;;2.42;1.60;;;;;;;9.83;25.98;99589.53;1689917;84;21020;-65
2022/03/09 11:48:14;;;;;;;3.15;1.77;;;;;;;9.78;26.08;99591.84;1761842;80;20947;-65